createdAt,value
2022-12-16T00:08:52.857Z,7.40
2022-12-16T00:23:58.589Z,7.70
2022-12-16T00:39:03.246Z,7.50
2022-12-16T00:54:07.662Z,7.80
2022-12-16T01:09:12.078Z,7.80
2022-12-16T01:24:16.548Z,7.70
2022-12-16T01:39:21.380Z,7.40
2022-12-16T01:54:29.060Z,7.40
2022-12-16T02:09:33.520Z,7.40
2022-12-16T02:25:13.590Z,6.90
2022-12-16T02:40:24.971Z,6.70
2022-12-16T02:55:40.862Z,7.20
2022-12-16T03:10:48.636Z,6.60
2022-12-16T03:25:58.037Z,6.50
2022-12-16T03:41:04.003Z,6.40
2022-12-16T03:56:08.796Z,6.50
2022-12-16T04:11:31.251Z,6.40
2022-12-16T04:26:56.812Z,6.20
2022-12-16T04:42:18.868Z,6.10
2022-12-16T04:57:40.869Z,6.50
2022-12-16T05:13:02.503Z,5.40
2022-12-16T05:28:24.363Z,5.60
2022-12-16T05:43:46.169Z,6.40
2022-12-16T05:59:08.159Z,6.30
2022-12-16T06:14:30.163Z,6.20
2022-12-16T06:29:51.934Z,6.30
2022-12-16T06:45:13.985Z,6.70
2022-12-16T07:00:36.629Z,6.70
2022-12-16T07:15:58.689Z,6.70
2022-12-16T07:31:20.692Z,6.60
2022-12-16T07:46:42.712Z,6.80
2022-12-16T08:02:04.411Z,6.80
2022-12-16T08:17:26.716Z,6.70
2022-12-16T08:32:48.506Z,6.60
2022-12-16T08:48:10.285Z,7.10
2022-12-16T09:03:32.605Z,7.20
2022-12-16T09:18:54.815Z,7.40
2022-12-16T09:34:17.644Z,7.40
2022-12-16T09:49:59.518Z,7.80
2022-12-16T10:05:30.623Z,8.00
2022-12-16T10:21:03.029Z,8.40
2022-12-16T10:36:33.042Z,8.40
2022-12-16T10:51:55.067Z,8.40
2022-12-16T11:07:20.470Z,8.60
2022-12-16T11:22:42.755Z,8.50
2022-12-16T11:38:11.752Z,8.50
2022-12-16T11:53:54.141Z,8.40
2022-12-16T12:09:23.229Z,8.60
2022-12-16T12:24:57.855Z,8.70
2022-12-16T12:40:33.917Z,8.30
2022-12-16T12:56:07.317Z,8.50
2022-12-16T13:11:35.474Z,8.20
2022-12-16T13:27:15.284Z,8.40
2022-12-16T13:43:10.864Z,8.10
2022-12-16T13:58:53.436Z,8.30
2022-12-16T14:14:21.527Z,8.30
2022-12-16T14:29:46.296Z,8.00
2022-12-16T14:45:08.287Z,8.50
2022-12-16T15:00:33.886Z,8.40
2022-12-16T15:16:00.561Z,8.50
2022-12-16T15:31:32.827Z,8.20
2022-12-16T15:46:55.391Z,7.80
2022-12-16T16:02:23.335Z,8.50
2022-12-16T16:17:45.857Z,8.30
2022-12-16T16:33:07.138Z,8.10
2022-12-16T16:48:33.111Z,8.20
2022-12-16T17:03:55.306Z,8.20
2022-12-16T17:19:18.090Z,8.20
2022-12-16T17:34:40.061Z,8.10
2022-12-16T17:50:02.226Z,8.00
2022-12-16T18:05:24.893Z,8.10
2022-12-16T18:20:46.661Z,7.80
2022-12-16T18:36:08.384Z,8.10
2022-12-16T18:51:30.289Z,7.90
2022-12-16T19:06:52.242Z,7.60
2022-12-16T19:22:13.893Z,7.40
2022-12-16T19:37:35.553Z,7.00
2022-12-16T19:52:57.532Z,7.20
2022-12-16T20:08:19.631Z,7.30
2022-12-16T20:23:41.506Z,7.20
2022-12-16T20:39:03.696Z,7.10
2022-12-16T20:54:28.337Z,6.90
2022-12-16T21:09:50.389Z,7.00
2022-12-16T21:25:12.310Z,7.50
2022-12-16T21:40:34.460Z,6.20
2022-12-16T21:55:56.231Z,6.80
2022-12-16T22:11:18.880Z,7.20
2022-12-16T22:26:40.993Z,6.90
2022-12-16T22:42:02.783Z,7.30
2022-12-16T22:57:25.039Z,7.30
2022-12-16T23:12:47.106Z,7.30
2022-12-16T23:28:09.616Z,7.60
2022-12-16T23:43:31.774Z,7.20
2022-12-16T23:59:08.017Z,7.40
